createdAt,value
2022-10-22T00:00:10.045Z,34.42
2022-10-22T00:02:37.073Z,32.38
2022-10-22T00:05:04.782Z,43.75
2022-10-22T00:07:31.530Z,40.25
2022-10-22T00:09:58.457Z,31.92
2022-10-22T00:12:25.378Z,35.72
2022-10-22T00:14:52.059Z,38.03
2022-10-22T00:17:19.019Z,34.30
2022-10-22T00:19:45.712Z,39.47
2022-10-22T00:22:12.665Z,38.08
2022-10-22T00:24:40.173Z,40.75
2022-10-22T00:27:09.529Z,33.80
2022-10-22T00:29:36.332Z,36.75
2022-10-22T00:32:04.397Z,37.35
2022-10-22T00:34:31.232Z,39.58
2022-10-22T00:36:57.979Z,37.00
2022-10-22T00:39:26.433Z,31.90
2022-10-22T00:41:55.269Z,35.15
2022-10-22T00:44:59.395Z,32.20
2022-10-22T00:47:28.954Z,31.95
2022-10-22T00:49:57.687Z,33.53
2022-10-22T00:52:25.041Z,27.58
2022-10-22T00:54:52.548Z,32.40
2022-10-22T00:57:20.320Z,30.60
2022-10-22T00:59:48.364Z,39.85
2022-10-22T01:02:16.232Z,32.63
2022-10-22T01:04:43.029Z,43.10
2022-10-22T01:07:18.956Z,31.80
2022-10-22T01:09:49.493Z,36.45
2022-10-22T01:12:31.345Z,34.17
2022-10-22T01:15:17.393Z,27.15
2022-10-22T01:17:55.620Z,27.48
2022-10-22T01:20:39.649Z,29.98
2022-10-22T01:23:12.334Z,31.58
2022-10-22T01:26:05.472Z,35.80
2022-10-22T01:28:57.056Z,39.10
2022-10-22T01:31:27.733Z,37.67
2022-10-22T01:33:55.232Z,42.72
2022-10-22T01:36:22.107Z,38.60
2022-10-22T01:38:51.585Z,41.22
2022-10-22T01:41:19.058Z,33.08
2022-10-22T01:43:45.824Z,37.67
2022-10-22T01:46:13.499Z,38.85
2022-10-22T01:48:43.133Z,39.88
2022-10-22T01:51:41.584Z,34.95
2022-10-22T01:54:11.112Z,35.65
2022-10-22T01:56:58.372Z,39.42
2022-10-22T01:59:52.331Z,38.15
2022-10-22T02:02:30.678Z,34.53
2022-10-22T02:05:03.755Z,37.03
2022-10-22T02:07:36.208Z,41.20
2022-10-22T02:10:04.961Z,38.67
2022-10-22T02:12:34.140Z,34.97
2022-10-22T02:15:03.848Z,42.20
2022-10-22T02:17:34.876Z,40.92
2022-10-22T02:20:10.170Z,45.20
2022-10-22T02:22:37.491Z,39.35
2022-10-22T02:25:06.448Z,43.85
2022-10-22T02:27:47.056Z,43.92
2022-10-22T02:30:20.133Z,44.75
2022-10-22T02:33:02.094Z,39.70
2022-10-22T02:35:30.356Z,34.00
2022-10-22T02:37:59.820Z,45.30
2022-10-22T02:40:28.018Z,40.25
2022-10-22T02:42:54.818Z,36.58
2022-10-22T02:45:22.368Z,44.42
2022-10-22T02:47:49.398Z,43.35
2022-10-22T02:50:16.437Z,50.15
2022-10-22T02:52:43.441Z,49.05
2022-10-22T02:57:37.566Z,49.08
2022-10-22T03:00:06.383Z,42.55
2022-10-22T03:02:33.183Z,36.15
2022-10-22T03:05:00.240Z,40.28
2022-10-22T03:07:27.371Z,37.83
2022-10-22T03:12:26.051Z,46.80
2022-10-22T03:14:53.133Z,48.72
2022-10-22T03:19:47.412Z,43.40
2022-10-22T03:24:52.374Z,33.33
2022-10-22T03:27:21.961Z,43.55
2022-10-22T03:29:51.404Z,48.67
2022-10-22T03:32:18.614Z,38.03
2022-10-22T03:37:12.216Z,60.33
2022-10-22T03:39:39.093Z,39.42
2022-10-22T03:42:08.466Z,45.30
2022-10-22T03:44:38.273Z,42.65
2022-10-22T03:47:05.598Z,41.72
2022-10-22T03:49:32.664Z,48.85
2022-10-22T03:52:06.224Z,37.65
2022-10-22T03:54:33.102Z,33.10
2022-10-22T03:56:59.877Z,46.25
2022-10-22T03:59:26.570Z,39.13
2022-10-22T04:01:53.305Z,35.47
2022-10-22T04:04:20.653Z,41.88
2022-10-22T04:09:13.936Z,33.42
2022-10-22T04:11:40.650Z,66.22
2022-10-22T04:14:07.470Z,42.25
2022-10-22T04:16:34.331Z,39.72
2022-10-22T04:19:01.070Z,45.13
2022-10-22T04:21:27.917Z,42.65
2022-10-22T04:23:56.472Z,31.50
2022-10-22T04:26:23.322Z,39.28
2022-10-22T04:28:51.450Z,45.42
2022-10-22T04:31:20.948Z,27.55
2022-10-22T04:33:48.153Z,39.35
2022-10-22T04:38:47.689Z,30.25
2022-10-22T04:41:17.761Z,33.45
2022-10-22T04:43:45.296Z,36.60
2022-10-22T04:46:13.000Z,17.15
2022-10-22T04:48:41.724Z,34.08
2022-10-22T04:51:11.200Z,31.15
2022-10-22T04:53:38.081Z,37.05
2022-10-22T04:56:13.684Z,51.55
2022-10-22T04:58:40.391Z,89.28
2022-10-22T05:01:24.711Z,73.50
2022-10-22T05:03:53.508Z,83.30
2022-10-22T05:06:21.264Z,37.40
2022-10-22T05:08:52.087Z,50.03
2022-10-22T05:11:21.673Z,43.50
2022-10-22T05:13:48.650Z,47.20
2022-10-22T05:16:15.507Z,53.05
2022-10-22T05:18:44.179Z,47.83
2022-10-22T05:21:19.228Z,47.95
2022-10-22T05:23:48.356Z,55.55
2022-10-22T05:26:18.021Z,52.25
2022-10-22T05:28:45.054Z,52.78
2022-10-22T05:31:13.852Z,51.15
2022-10-22T05:33:41.342Z,50.83
2022-10-22T05:36:10.764Z,50.88
2022-10-22T05:38:37.548Z,52.25
2022-10-22T05:41:10.419Z,61.10
2022-10-22T05:43:38.041Z,57.22
2022-10-22T05:46:07.291Z,48.03
2022-10-22T05:48:34.181Z,59.25
2022-10-22T05:51:05.824Z,48.65
2022-10-22T05:53:33.492Z,49.25
2022-10-22T05:56:05.951Z,49.35
2022-10-22T05:58:33.176Z,49.10
2022-10-22T06:03:31.900Z,47.85
2022-10-22T06:06:04.776Z,53.08
2022-10-22T06:08:31.648Z,61.13
2022-10-22T06:10:59.738Z,51.75
2022-10-22T06:13:26.567Z,58.30
2022-10-22T06:15:53.559Z,53.55
2022-10-22T06:18:20.297Z,58.00
2022-10-22T06:20:47.709Z,50.80
2022-10-22T06:23:15.396Z,46.95
2022-10-22T06:25:42.764Z,45.67
2022-10-22T06:28:09.900Z,40.75
2022-10-22T06:30:41.838Z,47.75
2022-10-22T06:33:11.171Z,44.88
2022-10-22T06:35:37.839Z,39.60
2022-10-22T06:38:04.604Z,39.38
2022-10-22T06:40:31.304Z,41.50
2022-10-22T06:42:59.916Z,42.67
2022-10-22T06:45:26.609Z,42.17
2022-10-22T06:47:53.804Z,37.47
2022-10-22T06:52:47.192Z,47.85
2022-10-22T06:55:13.908Z,39.38
2022-10-22T06:57:40.737Z,54.45
2022-10-22T07:00:08.262Z,42.65
2022-10-22T07:02:35.181Z,43.17
2022-10-22T07:05:01.995Z,37.92
2022-10-22T07:07:28.724Z,44.33
2022-10-22T07:09:55.676Z,40.67
2022-10-22T07:12:22.416Z,41.80
2022-10-22T07:14:50.061Z,38.42
2022-10-22T07:17:16.741Z,40.60
2022-10-22T07:19:44.573Z,38.67
2022-10-22T07:22:12.157Z,38.95
2022-10-22T07:24:38.898Z,30.48
2022-10-22T07:27:09.403Z,37.72
2022-10-22T07:29:38.421Z,34.75
2022-10-22T07:32:05.281Z,46.25
2022-10-22T07:34:31.976Z,33.47
2022-10-22T07:36:59.417Z,27.20
2022-10-22T07:39:26.493Z,28.95
2022-10-22T07:41:53.600Z,30.73
2022-10-22T07:44:20.971Z,33.70
2022-10-22T07:46:49.204Z,31.08
2022-10-22T07:49:18.633Z,30.98
2022-10-22T07:51:45.800Z,31.40
2022-10-22T07:54:12.493Z,25.77
2022-10-22T07:56:39.199Z,29.88
2022-10-22T07:59:05.990Z,30.50
2022-10-22T08:01:32.816Z,31.15
2022-10-22T08:03:59.546Z,30.50
2022-10-22T08:06:26.305Z,25.15
2022-10-22T08:08:53.175Z,39.80
2022-10-22T08:11:19.873Z,28.67
2022-10-22T08:13:46.569Z,28.15
2022-10-22T08:18:41.149Z,25.13
2022-10-22T08:21:07.992Z,25.83
2022-10-22T08:23:34.830Z,35.60
2022-10-22T08:26:03.036Z,25.98
2022-10-22T08:28:31.496Z,32.22
2022-10-22T08:30:58.607Z,27.98
2022-10-22T08:33:25.350Z,25.98
2022-10-22T08:35:52.267Z,26.88
2022-10-22T08:38:19.544Z,27.90
2022-10-22T08:40:53.186Z,29.83
2022-10-22T08:43:51.585Z,38.15
2022-10-22T08:46:46.058Z,46.95
2022-10-22T08:49:25.272Z,35.63
2022-10-22T08:51:52.503Z,30.15
2022-10-22T08:57:06.888Z,33.27
2022-10-22T08:59:59.025Z,42.80
2022-10-22T09:02:57.675Z,33.80
2022-10-22T09:05:38.562Z,33.42
2022-10-22T09:08:09.626Z,26.75
2022-10-22T09:10:40.749Z,25.17
2022-10-22T09:13:11.832Z,28.70
2022-10-22T09:15:38.608Z,26.75
2022-10-22T09:18:26.824Z,36.10
2022-10-22T09:23:28.908Z,32.53
2022-10-22T09:25:57.121Z,27.13
2022-10-22T09:28:24.038Z,35.20
2022-10-22T09:30:51.111Z,35.53
2022-10-22T09:33:26.470Z,30.02
2022-10-22T09:36:05.831Z,33.58
2022-10-22T09:38:39.875Z,33.88
2022-10-22T09:41:07.131Z,36.92
2022-10-22T09:43:36.121Z,36.50
2022-10-22T09:46:06.143Z,35.75
2022-10-22T09:48:40.914Z,32.78
2022-10-22T09:51:23.596Z,35.70
2022-10-22T09:54:02.155Z,33.50
2022-10-22T09:56:39.631Z,43.05
2022-10-22T09:59:06.920Z,38.15
2022-10-22T10:01:38.607Z,30.30
2022-10-22T10:04:16.164Z,33.42
2022-10-22T10:06:44.868Z,29.77
2022-10-22T10:09:17.753Z,39.03
2022-10-22T10:12:02.770Z,29.85
2022-10-22T10:14:57.078Z,32.08
2022-10-22T10:17:44.146Z,48.63
2022-10-22T10:20:50.628Z,37.63
2022-10-22T10:23:54.460Z,41.60
2022-10-22T10:26:34.466Z,57.47
2022-10-22T10:29:25.776Z,44.45
2022-10-22T10:32:28.411Z,42.13
2022-10-22T10:35:04.656Z,35.17
2022-10-22T10:37:40.329Z,81.57
2022-10-22T10:40:40.768Z,33.65
2022-10-22T10:43:11.746Z,35.38
2022-10-22T10:46:05.493Z,26.52
2022-10-22T10:49:18.763Z,33.28
2022-10-22T10:52:32.916Z,26.65
2022-10-22T10:55:28.788Z,29.05
2022-10-22T10:58:16.967Z,38.28
2022-10-22T11:00:55.491Z,32.83
2022-10-22T11:03:56.448Z,37.63
2022-10-22T11:06:25.808Z,36.10
2022-10-22T11:09:19.059Z,28.83
2022-10-22T11:11:51.634Z,34.05
2022-10-22T11:14:30.540Z,26.48
2022-10-22T11:17:04.480Z,27.55
2022-10-22T11:19:55.656Z,32.75
2022-10-22T11:22:32.189Z,33.83
2022-10-22T11:25:17.796Z,33.58
2022-10-22T11:28:06.772Z,29.08
2022-10-22T11:30:38.865Z,25.80
2022-10-22T11:33:28.384Z,64.95
2022-10-22T11:36:05.411Z,45.92
2022-10-22T11:38:35.129Z,51.10
2022-10-22T11:41:13.533Z,23.90
2022-10-22T11:43:55.682Z,29.10
2022-10-22T11:46:22.319Z,246.52
2022-10-22T11:49:13.896Z,110.05
2022-10-22T11:51:43.179Z,30.52
2022-10-22T11:54:34.268Z,27.83
2022-10-22T11:57:16.242Z,26.30
2022-10-22T12:00:00.831Z,20.88
2022-10-22T12:02:45.082Z,24.48
2022-10-22T12:05:23.807Z,22.40
2022-10-22T12:08:00.133Z,23.55
2022-10-22T12:10:36.756Z,23.75
2022-10-22T12:13:13.456Z,22.08
2022-10-22T12:15:55.005Z,18.77
2022-10-22T12:18:42.551Z,20.60
2022-10-22T12:21:15.790Z,18.80
2022-10-22T12:23:47.704Z,25.90
2022-10-22T12:26:33.073Z,23.20
2022-10-22T12:29:12.257Z,21.20
2022-10-22T12:31:44.733Z,21.83
2022-10-22T12:34:22.288Z,23.27
2022-10-22T12:36:53.196Z,25.23
2022-10-22T12:39:25.392Z,26.52
2022-10-22T12:41:54.087Z,26.15
2022-10-22T12:44:20.852Z,18.67
2022-10-22T12:46:51.808Z,17.67
2022-10-22T12:49:23.688Z,17.77
2022-10-22T12:51:50.391Z,19.92
2022-10-22T12:54:25.638Z,24.05
2022-10-22T12:56:54.075Z,30.17
2022-10-22T12:59:25.390Z,23.38
2022-10-22T13:01:53.187Z,19.83
2022-10-22T13:04:35.146Z,21.80
2022-10-22T13:07:22.559Z,22.85
2022-10-22T13:10:00.161Z,39.03
2022-10-22T13:14:54.572Z,23.10
2022-10-22T13:17:38.645Z,24.48
2022-10-22T13:20:20.067Z,23.73
2022-10-22T13:23:00.362Z,30.77
2022-10-22T13:25:35.055Z,32.58
2022-10-22T13:28:16.767Z,25.85
2022-10-22T13:30:57.505Z,26.10
2022-10-22T13:33:32.729Z,22.48
2022-10-22T13:35:59.643Z,23.38
2022-10-22T13:38:28.067Z,26.90
2022-10-22T13:40:56.235Z,24.35
2022-10-22T13:43:23.452Z,21.73
2022-10-22T13:45:54.438Z,23.55
2022-10-22T13:48:23.438Z,28.65
2022-10-22T13:50:51.430Z,28.95
2022-10-22T13:53:22.449Z,27.90
2022-10-22T13:55:50.418Z,32.42
2022-10-22T13:58:24.834Z,27.60
2022-10-22T14:00:59.074Z,26.15
2022-10-22T14:03:34.641Z,33.05
2022-10-22T14:06:01.819Z,40.72
2022-10-22T14:08:28.977Z,34.20
2022-10-22T14:10:56.422Z,33.80
2022-10-22T14:13:23.350Z,36.75
2022-10-22T14:18:26.751Z,43.67
2022-10-22T14:20:56.991Z,31.67
2022-10-22T14:23:27.909Z,30.13
2022-10-22T14:25:55.739Z,37.28
2022-10-22T14:28:22.561Z,30.58
2022-10-22T14:30:50.669Z,38.92
2022-10-22T14:33:20.093Z,34.80
2022-10-22T14:35:49.031Z,32.03
2022-10-22T14:38:16.204Z,31.75
2022-10-22T14:40:44.328Z,30.92
2022-10-22T14:43:22.310Z,42.33
2022-10-22T14:45:49.266Z,30.63
2022-10-22T14:48:16.540Z,34.95
2022-10-22T14:50:45.069Z,31.38
2022-10-22T14:53:13.642Z,28.73
2022-10-22T14:55:41.287Z,33.60
2022-10-22T14:58:08.068Z,33.13
2022-10-22T15:00:36.809Z,32.17
2022-10-22T15:03:04.438Z,30.70
2022-10-22T15:05:31.320Z,37.50
2022-10-22T15:07:59.448Z,30.92
2022-10-22T15:10:26.823Z,27.08
2022-10-22T15:12:53.517Z,27.35
2022-10-22T15:15:22.700Z,28.52
2022-10-22T15:17:50.485Z,27.15
2022-10-22T15:20:17.257Z,29.77
2022-10-22T15:22:45.310Z,17.45
2022-10-22T15:25:13.219Z,24.00
2022-10-22T15:27:40.467Z,22.38
2022-10-22T15:30:08.463Z,15.65
2022-10-22T15:32:35.253Z,16.90
2022-10-22T15:35:02.556Z,16.98
2022-10-22T15:37:29.301Z,11.43
2022-10-22T15:39:55.992Z,13.40
2022-10-22T15:42:23.908Z,11.75
2022-10-22T15:44:57.900Z,11.80
2022-10-22T15:47:28.528Z,12.25
2022-10-22T15:49:55.468Z,13.38
2022-10-22T15:54:48.997Z,12.18
2022-10-22T15:57:15.888Z,12.55
2022-10-22T15:59:42.651Z,16.98
2022-10-22T16:02:11.482Z,13.57
2022-10-22T16:04:39.409Z,10.73
2022-10-22T16:07:06.394Z,13.82
2022-10-22T16:09:33.116Z,20.02
2022-10-22T16:11:59.842Z,11.25
2022-10-22T16:14:28.682Z,9.65
2022-10-22T16:16:55.893Z,9.15
2022-10-22T16:21:53.404Z,20.10
2022-10-22T16:24:21.281Z,5.95
2022-10-22T16:26:48.716Z,8.02
2022-10-22T16:29:15.895Z,7.55
2022-10-22T16:31:44.025Z,9.05
2022-10-22T16:34:11.682Z,8.32
2022-10-22T16:36:39.153Z,9.18
2022-10-22T16:39:07.039Z,5.85
2022-10-22T16:41:37.643Z,5.28
2022-10-22T16:44:08.051Z,7.07
2022-10-22T16:46:38.361Z,5.05
2022-10-22T16:49:06.308Z,15.98
2022-10-22T16:51:33.123Z,17.90
2022-10-22T16:54:00.440Z,8.35
2022-10-22T16:56:27.657Z,15.15
2022-10-22T17:01:32.669Z,39.50
2022-10-22T17:04:01.027Z,12.15
2022-10-22T17:06:28.273Z,22.27
2022-10-22T17:08:55.607Z,81.13
2022-10-22T17:11:24.566Z,103.75
2022-10-22T17:13:54.320Z,145.73
2022-10-22T17:16:24.472Z,23.52
2022-10-22T17:18:53.627Z,16.45
2022-10-22T17:21:21.353Z,10.80
2022-10-22T17:23:48.302Z,15.07
2022-10-22T17:26:19.625Z,11.45
2022-10-22T17:28:47.338Z,73.07
2022-10-22T17:31:32.769Z,21.05
2022-10-22T17:34:00.228Z,12.73
2022-10-22T17:36:31.820Z,177.13
2022-10-22T17:39:04.700Z,123.93
2022-10-22T17:41:35.356Z,192.80
2022-10-22T17:44:04.738Z,304.13
2022-10-22T17:46:32.813Z,217.57
2022-10-22T17:49:03.886Z,239.18
2022-10-22T17:51:32.067Z,311.83
2022-10-22T17:53:59.348Z,527.60
2022-10-22T17:56:28.364Z,375.92
2022-10-22T17:58:55.791Z,137.80
2022-10-22T18:01:25.410Z,112.47
2022-10-22T18:03:53.856Z,144.10
2022-10-22T18:06:21.131Z,144.63
2022-10-22T18:08:47.917Z,120.38
2022-10-22T18:11:18.539Z,207.13
2022-10-22T18:13:50.089Z,158.80
2022-10-22T18:16:17.773Z,140.63
2022-10-22T18:18:49.015Z,305.70
2022-10-22T18:21:16.457Z,297.02
2022-10-22T18:23:43.215Z,131.57
2022-10-22T18:26:09.914Z,363.13
2022-10-22T18:28:37.062Z,245.57
2022-10-22T18:33:36.216Z,347.38
2022-10-22T18:36:11.571Z,81.90
2022-10-22T18:38:38.395Z,77.45
2022-10-22T18:41:13.232Z,84.78
2022-10-22T18:43:40.077Z,217.05
2022-10-22T18:46:07.918Z,403.58
2022-10-22T18:48:35.875Z,149.20
2022-10-22T18:51:07.842Z,175.20
2022-10-22T18:53:36.095Z,299.02
2022-10-22T18:56:06.037Z,279.40
2022-10-22T18:58:37.985Z,315.85
2022-10-22T19:01:15.588Z,210.07
2022-10-22T19:03:42.354Z,174.95
2022-10-22T19:06:09.059Z,159.10
2022-10-22T19:08:37.034Z,93.20
2022-10-22T19:11:13.229Z,92.82
2022-10-22T19:13:40.897Z,65.00
2022-10-22T19:16:11.683Z,144.65
2022-10-22T19:18:42.164Z,324.15
2022-10-22T19:21:08.962Z,269.55
2022-10-22T19:23:35.763Z,150.45
2022-10-22T19:26:15.434Z,288.55
2022-10-22T19:28:42.563Z,294.23
2022-10-22T19:31:16.692Z,114.78
2022-10-22T19:33:43.462Z,151.93
2022-10-22T19:36:14.328Z,228.13
2022-10-22T19:38:44.105Z,145.10
2022-10-22T19:41:15.206Z,144.35
2022-10-22T19:43:43.642Z,222.23
2022-10-22T19:46:11.629Z,213.43
2022-10-22T19:48:39.900Z,192.45
2022-10-22T19:51:09.743Z,226.13
2022-10-22T19:53:39.808Z,227.45
2022-10-22T19:56:10.393Z,107.05
2022-10-22T19:58:39.235Z,127.55
2022-10-22T20:01:09.917Z,155.35
2022-10-22T20:03:38.850Z,182.40
2022-10-22T20:06:07.883Z,115.35
2022-10-22T20:08:38.557Z,95.75
2022-10-22T20:11:10.700Z,123.43
2022-10-22T20:16:07.411Z,52.90
2022-10-22T20:21:11.380Z,53.55
2022-10-22T20:23:38.124Z,92.15
2022-10-22T20:26:05.775Z,177.02
2022-10-22T20:28:32.947Z,114.50
2022-10-22T20:33:26.400Z,218.50
2022-10-22T20:36:04.632Z,92.28
2022-10-22T20:38:31.426Z,114.47
2022-10-22T20:41:03.688Z,121.45
2022-10-22T20:43:30.603Z,165.48
2022-10-22T20:45:57.321Z,122.28
2022-10-22T20:48:26.839Z,121.00
2022-10-22T20:50:54.196Z,132.88
2022-10-22T20:53:21.257Z,225.45
2022-10-22T20:58:17.717Z,100.00
2022-10-22T21:00:45.823Z,154.27
2022-10-22T21:03:13.652Z,106.90
2022-10-22T21:05:40.785Z,179.80
2022-10-22T21:10:35.033Z,30.45
2022-10-22T21:13:01.837Z,116.25
2022-10-22T21:15:28.707Z,154.00
2022-10-22T21:17:55.389Z,85.70
2022-10-22T21:20:24.593Z,106.43
2022-10-22T21:22:51.919Z,65.90
2022-10-22T21:25:18.622Z,63.47
2022-10-22T21:27:45.321Z,90.20
2022-10-22T21:30:12.946Z,56.67
2022-10-22T21:32:39.933Z,73.28
2022-10-22T21:37:35.177Z,55.70
2022-10-22T21:40:03.780Z,47.90
2022-10-22T21:42:30.688Z,46.40
2022-10-22T21:44:57.433Z,87.18
2022-10-22T21:47:24.408Z,84.45
2022-10-22T21:49:51.181Z,198.52
2022-10-22T21:52:17.977Z,170.90
2022-10-22T21:54:44.656Z,83.47
2022-10-22T21:57:11.512Z,180.00
2022-10-22T21:59:38.241Z,168.40
2022-10-22T22:02:06.014Z,98.95
2022-10-22T22:04:33.154Z,84.30
2022-10-22T22:06:59.927Z,65.15
2022-10-22T22:09:26.676Z,91.97
2022-10-22T22:11:53.359Z,82.28
2022-10-22T22:14:20.109Z,114.88
2022-10-22T22:16:46.915Z,70.60
2022-10-22T22:19:13.700Z,153.45
2022-10-22T22:21:41.644Z,115.78
2022-10-22T22:24:11.386Z,167.60
2022-10-22T22:26:39.178Z,90.88
2022-10-22T22:29:05.986Z,107.63
2022-10-22T22:31:35.143Z,106.90
2022-10-22T22:34:13.641Z,89.45
2022-10-22T22:36:43.085Z,160.00
2022-10-22T22:39:13.435Z,40.70
2022-10-22T22:41:41.016Z,123.20
2022-10-22T22:44:08.237Z,244.77
2022-10-22T22:49:01.875Z,130.93
2022-10-22T22:51:28.560Z,61.88
2022-10-22T22:53:58.212Z,105.65
2022-10-22T22:56:27.736Z,230.90
2022-10-22T22:58:55.286Z,88.97
2022-10-22T23:01:28.069Z,36.22
2022-10-22T23:04:04.070Z,38.42
2022-10-22T23:06:33.624Z,54.92
2022-10-22T23:09:00.745Z,87.45
2022-10-22T23:13:57.917Z,107.93
2022-10-22T23:16:27.966Z,116.53
2022-10-22T23:18:55.639Z,80.07
2022-10-22T23:21:28.074Z,89.18
2022-10-22T23:23:58.110Z,129.35
2022-10-22T23:26:46.616Z,147.40
2022-10-22T23:31:42.982Z,97.65
2022-10-22T23:36:50.150Z,133.45
2022-10-22T23:39:19.326Z,157.35
2022-10-22T23:41:46.029Z,174.40
2022-10-22T23:44:13.646Z,171.50
2022-10-22T23:46:40.544Z,170.63
2022-10-22T23:49:09.869Z,124.57
2022-10-22T23:51:37.178Z,92.93
2022-10-22T23:56:32.821Z,97.35
